createdAt,value
2018-10-21T00:00:45.380Z,95.20
2018-10-21T00:03:18.011Z,94.80
2018-10-21T00:05:49.177Z,94.80
2018-10-21T00:08:20.406Z,94.70
2018-10-21T00:10:51.553Z,94.40
2018-10-21T00:13:23.120Z,94.80
2018-10-21T00:15:54.759Z,94.70
2018-10-21T00:18:26.361Z,95.30
2018-10-21T00:20:57.583Z,95.40
2018-10-21T00:23:28.911Z,95.60
2018-10-21T00:26:00.101Z,96.60
2018-10-21T00:28:31.606Z,96.70
2018-10-21T00:31:02.798Z,97.30
2018-10-21T00:33:34.312Z,98.40
2018-10-21T00:36:05.871Z,97.10
2018-10-21T00:38:37.091Z,96.80
2018-10-21T00:41:09.410Z,97.50
2018-10-21T00:43:40.718Z,98.10
2018-10-21T00:46:12.323Z,97.10
2018-10-21T00:48:43.762Z,97.20
2018-10-21T00:51:15.243Z,97.20
2018-10-21T00:53:46.739Z,97.60
2018-10-21T00:56:18.306Z,97.20
2018-10-21T00:58:49.773Z,96.80
2018-10-21T01:01:21.260Z,96.70
2018-10-21T01:03:52.807Z,96.80
2018-10-21T01:06:23.968Z,97.10
2018-10-21T01:08:55.121Z,97.40
2018-10-21T01:11:26.785Z,97.60
2018-10-21T01:13:58.042Z,97.90
2018-10-21T01:16:29.585Z,98.10
2018-10-21T01:19:01.031Z,97.80
2018-10-21T01:21:32.128Z,97.70
2018-10-21T01:24:03.289Z,97.80
2018-10-21T01:26:34.850Z,97.70
2018-10-21T01:29:06.001Z,97.40
2018-10-21T01:31:37.176Z,97.40
2018-10-21T01:34:08.505Z,96.50
2018-10-21T01:36:40.205Z,96.40
2018-10-21T01:39:12.792Z,96.10
2018-10-21T01:41:43.888Z,96.10
2018-10-21T01:44:15.358Z,96.30
2018-10-21T01:46:46.523Z,96.00
2018-10-21T01:49:17.683Z,95.50
2018-10-21T01:51:48.835Z,95.60
2018-10-21T01:54:23.401Z,95.50
2018-10-21T01:56:54.596Z,95.60
2018-10-21T01:59:26.190Z,95.60
2018-10-21T02:01:58.126Z,95.60
2018-10-21T02:04:29.419Z,94.90
2018-10-21T02:07:01.025Z,94.70
2018-10-21T02:09:32.245Z,94.50
2018-10-21T02:12:03.348Z,94.60
2018-10-21T02:14:34.800Z,94.50
2018-10-21T02:17:06.317Z,94.10
2018-10-21T02:19:37.808Z,94.20
2018-10-21T02:22:09.315Z,94.30
2018-10-21T02:24:40.906Z,94.40
2018-10-21T02:27:12.127Z,94.00
2018-10-21T02:29:43.476Z,94.50
2018-10-21T02:32:14.605Z,94.10
2018-10-21T02:34:46.203Z,94.30
2018-10-21T02:37:17.712Z,93.90
2018-10-21T02:39:49.282Z,93.50
2018-10-21T02:42:20.911Z,93.30
2018-10-21T02:44:52.403Z,93.70
2018-10-21T02:47:24.435Z,93.50
2018-10-21T02:49:55.587Z,93.90
2018-10-21T02:52:27.082Z,94.40
2018-10-21T02:54:58.575Z,94.30
2018-10-21T02:57:29.731Z,94.40
2018-10-21T03:00:01.515Z,94.30
2018-10-21T03:02:32.651Z,94.40
2018-10-21T03:05:03.802Z,94.60
2018-10-21T03:07:35.760Z,94.80
2018-10-21T03:10:07.223Z,95.10
2018-10-21T03:12:39.035Z,95.50
2018-10-21T03:15:10.209Z,95.70
2018-10-21T03:17:41.329Z,95.80
2018-10-21T03:20:12.487Z,95.90
2018-10-21T03:22:43.672Z,96.00
2018-10-21T03:25:14.827Z,96.20
2018-10-21T03:27:45.963Z,96.50
2018-10-21T03:30:17.108Z,96.30
2018-10-21T03:32:48.644Z,96.20
2018-10-21T03:35:20.047Z,96.40
2018-10-21T03:37:51.589Z,96.30
2018-10-21T03:40:23.364Z,96.30
2018-10-21T03:42:55.361Z,96.30
2018-10-21T03:45:27.236Z,96.30
2018-10-21T03:47:58.436Z,96.30
2018-10-21T03:50:29.891Z,96.20
2018-10-21T03:53:01.077Z,95.80
2018-10-21T03:55:34.025Z,96.20
2018-10-21T03:58:05.966Z,96.20
2018-10-21T04:00:37.575Z,96.20
2018-10-21T04:03:09.240Z,96.30
2018-10-21T04:05:40.812Z,96.50
2018-10-21T04:08:11.974Z,96.40
2018-10-21T04:10:43.127Z,96.20
2018-10-21T04:13:14.300Z,95.90
2018-10-21T04:15:45.520Z,95.80
2018-10-21T04:18:16.956Z,95.80
2018-10-21T04:20:48.380Z,96.20
2018-10-21T04:23:19.538Z,96.20
2018-10-21T04:25:50.963Z,96.00
2018-10-21T04:28:22.166Z,96.00
2018-10-21T04:30:53.508Z,96.10
2018-10-21T04:33:43.327Z,96.60
2018-10-21T04:36:16.182Z,96.00
2018-10-21T04:39:57.066Z,96.20
2018-10-21T04:42:28.770Z,96.10
2018-10-21T04:45:00.033Z,96.60
2018-10-21T04:47:31.563Z,96.50
2018-10-21T04:50:02.745Z,96.50
2018-10-21T04:52:34.548Z,96.50
2018-10-21T04:55:16.137Z,96.30
2018-10-21T04:57:48.834Z,95.70
2018-10-21T05:00:21.292Z,95.70
2018-10-21T05:02:52.535Z,95.70
2018-10-21T05:05:23.647Z,95.80
2018-10-21T05:07:55.408Z,96.20
2018-10-21T05:10:37.663Z,96.00
2018-10-21T05:13:09.698Z,96.20
2018-10-21T05:15:41.558Z,96.40
2018-10-21T05:18:13.255Z,96.60
2018-10-21T05:20:44.863Z,96.40
2018-10-21T05:23:16.520Z,96.60
2018-10-21T05:25:48.108Z,96.20
2018-10-21T05:28:20.079Z,96.40
2018-10-21T05:30:51.225Z,96.70
2018-10-21T05:33:22.401Z,96.60
2018-10-21T05:35:53.987Z,96.60
2018-10-21T05:38:25.797Z,96.70
2018-10-21T05:40:57.000Z,96.70
2018-10-21T05:43:28.533Z,96.80
2018-10-21T05:45:59.830Z,96.70
2018-10-21T05:48:30.955Z,96.60
2018-10-21T05:51:02.611Z,96.90
2018-10-21T05:53:33.741Z,96.90
2018-10-21T05:56:05.223Z,97.20
2018-10-21T05:58:36.361Z,97.10
2018-10-21T06:01:07.543Z,96.30
2018-10-21T06:03:39.017Z,95.90
2018-10-21T06:06:11.121Z,95.50
2018-10-21T06:08:42.287Z,96.10
2018-10-21T06:11:13.993Z,96.00
2018-10-21T06:13:45.448Z,95.90
2018-10-21T06:16:18.075Z,96.60
2018-10-21T06:18:49.731Z,96.60
2018-10-21T06:21:20.950Z,97.00
2018-10-21T06:23:52.541Z,97.50
2018-10-21T06:26:23.641Z,97.70
2018-10-21T06:28:54.813Z,97.70
2018-10-21T06:31:26.100Z,97.70
2018-10-21T06:33:57.304Z,97.80
2018-10-21T06:36:28.683Z,96.30
2018-10-21T06:39:00.277Z,95.60
2018-10-21T06:41:31.828Z,94.80
2018-10-21T06:44:03.233Z,94.30
2018-10-21T06:46:35.143Z,93.80
2018-10-21T06:49:07.004Z,93.20
2018-10-21T06:51:38.615Z,92.90
2018-10-21T06:54:09.802Z,92.80
2018-10-21T06:56:41.099Z,92.20
2018-10-21T06:59:12.597Z,91.90
2018-10-21T07:01:44.186Z,92.30
2018-10-21T07:04:15.996Z,91.60
2018-10-21T07:06:47.228Z,91.80
2018-10-21T07:09:18.809Z,92.10
2018-10-21T07:11:50.314Z,91.50
2018-10-21T07:14:22.277Z,90.10
2018-10-21T07:16:53.478Z,88.30
2018-10-21T07:19:25.298Z,86.40
2018-10-21T07:21:56.721Z,83.70
2018-10-21T07:24:27.883Z,82.10
2018-10-21T07:26:59.266Z,79.70
2018-10-21T07:29:32.491Z,77.20
2018-10-21T07:32:04.058Z,78.60
2018-10-21T07:34:35.366Z,77.40
2018-10-21T07:37:07.098Z,76.50
2018-10-21T07:39:38.916Z,74.00
2018-10-21T07:42:10.260Z,73.90
2018-10-21T07:44:41.907Z,72.50
2018-10-21T07:47:13.609Z,69.40
2018-10-21T07:49:45.490Z,69.20
2018-10-21T07:52:17.669Z,68.80
2018-10-21T07:54:48.971Z,66.90
2018-10-21T07:57:20.335Z,67.40
2018-10-21T07:59:52.007Z,64.90
2018-10-21T08:02:23.406Z,64.80
2018-10-21T08:04:55.062Z,64.10
2018-10-21T08:08:25.618Z,63.40
2018-10-21T08:10:57.257Z,62.50
2018-10-21T08:13:28.955Z,59.10
2018-10-21T08:16:01.154Z,62.70
2018-10-21T08:18:32.807Z,60.00
2018-10-21T08:21:04.183Z,58.50
2018-10-21T08:23:36.283Z,58.40
2018-10-21T08:26:07.516Z,57.60
2018-10-21T08:28:42.162Z,57.00
2018-10-21T08:31:13.427Z,58.00
2018-10-21T08:33:45.333Z,56.50
2018-10-21T08:36:16.790Z,57.00
2018-10-21T08:38:48.329Z,57.30
2018-10-21T08:41:19.518Z,55.00
2018-10-21T08:43:50.686Z,55.20
2018-10-21T08:46:22.314Z,54.30
2018-10-21T08:48:53.317Z,53.10
2018-10-21T08:51:24.501Z,54.30
2018-10-21T08:53:55.956Z,53.70
2018-10-21T08:56:27.583Z,55.80
2018-10-21T08:59:00.255Z,53.30
2018-10-21T09:01:31.473Z,53.60
2018-10-21T09:04:02.834Z,53.80
2018-10-21T09:06:33.911Z,53.50
2018-10-21T09:09:06.037Z,54.70
2018-10-21T09:11:37.844Z,53.80
2018-10-21T09:14:09.005Z,55.00
2018-10-21T09:16:40.219Z,54.50
2018-10-21T09:19:11.448Z,52.80
2018-10-21T09:21:43.386Z,53.10
2018-10-21T09:24:15.285Z,52.40
2018-10-21T09:26:47.620Z,53.00
2018-10-21T09:29:18.879Z,52.40
2018-10-21T09:31:50.874Z,53.60
2018-10-21T09:34:22.758Z,53.00
2018-10-21T09:36:54.340Z,51.20
2018-10-21T09:39:25.590Z,52.70
2018-10-21T09:41:56.777Z,52.80
2018-10-21T09:44:27.950Z,50.20
2018-10-21T09:46:59.140Z,50.60
2018-10-21T09:49:30.334Z,50.50
2018-10-21T09:52:01.521Z,50.70
2018-10-21T09:54:32.767Z,51.20
2018-10-21T09:57:03.987Z,49.60
2018-10-21T09:59:35.431Z,49.10
2018-10-21T10:02:24.276Z,48.60
2018-10-21T10:04:56.076Z,48.20
2018-10-21T10:07:27.984Z,47.30
2018-10-21T10:09:59.230Z,48.80
2018-10-21T10:12:30.794Z,47.50
2018-10-21T10:15:01.981Z,47.30
2018-10-21T10:17:33.602Z,47.30
2018-10-21T10:20:04.717Z,46.50
2018-10-21T10:22:35.902Z,45.20
2018-10-21T10:25:08.479Z,45.40
2018-10-21T10:27:43.113Z,44.40
2018-10-21T10:30:15.040Z,44.70
2018-10-21T10:32:46.519Z,45.10
2018-10-21T10:35:17.852Z,45.00
2018-10-21T10:37:49.048Z,45.20
2018-10-21T10:40:23.428Z,44.30
2018-10-21T10:42:54.944Z,44.40
2018-10-21T10:45:26.426Z,43.10
2018-10-21T10:48:03.207Z,43.90
2018-10-21T10:50:35.880Z,43.50
2018-10-21T10:53:07.392Z,43.80
2018-10-21T10:55:52.212Z,41.20
2018-10-21T10:58:23.928Z,42.20
2018-10-21T11:00:55.763Z,43.10
2018-10-21T11:03:27.374Z,43.00
2018-10-21T11:05:58.590Z,40.80
2018-10-21T11:08:30.165Z,40.50
2018-10-21T11:11:01.609Z,42.20
2018-10-21T11:13:33.417Z,41.00
2018-10-21T11:16:04.679Z,38.60
2018-10-21T11:18:36.129Z,40.00
2018-10-21T11:21:08.237Z,39.40
2018-10-21T11:23:39.706Z,39.60
2018-10-21T11:26:10.888Z,38.80
2018-10-21T11:28:42.721Z,38.40
2018-10-21T11:31:15.642Z,37.50
2018-10-21T11:33:47.250Z,36.60
2018-10-21T11:36:18.445Z,36.90
2018-10-21T11:38:49.689Z,37.60
2018-10-21T11:41:20.884Z,38.70
2018-10-21T11:43:52.414Z,37.80
2018-10-21T11:46:23.651Z,38.30
2018-10-21T11:48:54.775Z,39.80
2018-10-21T11:51:26.031Z,38.60
2018-10-21T11:53:57.430Z,39.80
2018-10-21T11:56:28.617Z,40.90
2018-10-21T11:59:00.198Z,40.80
2018-10-21T12:01:31.374Z,42.40
2018-10-21T12:04:02.892Z,43.70
2018-10-21T12:06:34.037Z,43.90
2018-10-21T12:09:05.854Z,44.20
2018-10-21T12:11:37.560Z,42.40
2018-10-21T12:14:09.521Z,42.70
2018-10-21T12:16:41.180Z,41.90
2018-10-21T12:19:12.774Z,40.50
2018-10-21T12:21:44.151Z,42.00
2018-10-21T12:24:15.350Z,44.60
2018-10-21T12:26:46.605Z,45.20
2018-10-21T12:29:17.847Z,47.40
2018-10-21T12:31:49.261Z,50.10
2018-10-21T12:34:20.821Z,51.50
2018-10-21T12:36:52.010Z,54.00
2018-10-21T12:39:23.419Z,54.40
2018-10-21T12:41:55.196Z,55.90
2018-10-21T12:44:27.028Z,56.90
2018-10-21T12:46:58.728Z,56.60
2018-10-21T12:49:32.836Z,53.90
2018-10-21T12:52:04.741Z,49.20
2018-10-21T12:54:36.386Z,47.90
2018-10-21T12:57:07.533Z,46.30
2018-10-21T12:59:38.711Z,43.80
2018-10-21T13:02:09.903Z,42.90
2018-10-21T13:04:41.824Z,42.80
2018-10-21T13:07:13.290Z,42.60
2018-10-21T13:09:45.416Z,42.70
2018-10-21T13:12:16.865Z,42.90
2018-10-21T13:14:48.555Z,42.00
2018-10-21T13:17:20.166Z,40.30
2018-10-21T13:19:51.671Z,41.00
2018-10-21T13:22:23.207Z,39.50
2018-10-21T13:24:54.389Z,41.10
2018-10-21T13:27:25.817Z,39.00
2018-10-21T13:29:57.496Z,41.40
2018-10-21T13:32:29.035Z,39.90
2018-10-21T13:35:00.212Z,39.60
2018-10-21T13:37:31.769Z,39.60
2018-10-21T13:40:03.037Z,40.40
2018-10-21T13:42:34.795Z,40.30
2018-10-21T13:45:06.230Z,39.60
2018-10-21T13:47:37.801Z,41.10
2018-10-21T13:50:09.812Z,42.00
2018-10-21T13:52:41.082Z,42.20
2018-10-21T13:55:12.566Z,43.30
2018-10-21T13:57:43.681Z,42.40
2018-10-21T14:00:14.874Z,42.20
2018-10-21T14:02:46.639Z,43.30
2018-10-21T14:05:17.802Z,43.40
2018-10-21T14:07:49.023Z,44.80
2018-10-21T14:10:20.194Z,46.60
2018-10-21T14:12:51.359Z,48.10
2018-10-21T14:15:22.735Z,46.40
2018-10-21T14:17:54.462Z,46.20
2018-10-21T14:20:26.120Z,45.60
2018-10-21T14:22:57.792Z,45.90
2018-10-21T14:25:29.737Z,44.80
2018-10-21T14:28:01.168Z,45.70
2018-10-21T14:30:32.415Z,44.50
2018-10-21T14:33:03.629Z,44.60
2018-10-21T14:35:35.387Z,45.60
2018-10-21T14:38:06.574Z,47.00
2018-10-21T14:40:38.172Z,48.40
2018-10-21T14:43:09.800Z,50.30
2018-10-21T14:45:41.095Z,51.70
2018-10-21T14:48:12.267Z,52.20
2018-10-21T14:50:44.332Z,52.90
2018-10-21T14:53:15.536Z,53.30
2018-10-21T14:55:46.719Z,53.50
2018-10-21T14:58:18.894Z,54.70
2018-10-21T15:00:50.142Z,55.40
2018-10-21T15:03:21.626Z,54.80
2018-10-21T15:05:52.776Z,53.90
2018-10-21T15:08:24.288Z,54.80
2018-10-21T15:10:55.760Z,54.70
2018-10-21T15:13:27.413Z,55.50
2018-10-21T15:15:59.094Z,56.20
2018-10-21T15:18:30.935Z,56.40
2018-10-21T15:21:03.298Z,55.60
2018-10-21T15:23:35.028Z,55.90
2018-10-21T15:26:06.674Z,56.70
2018-10-21T15:28:38.971Z,57.60
2018-10-21T15:31:10.482Z,57.70
2018-10-21T15:33:42.011Z,57.90
2018-10-21T15:36:14.029Z,57.70
2018-10-21T15:38:45.587Z,59.20
2018-10-21T15:41:17.470Z,60.00
2018-10-21T15:43:48.988Z,59.60
2018-10-21T15:46:20.688Z,60.30
2018-10-21T15:48:52.498Z,60.80
2018-10-21T15:51:24.002Z,60.00
2018-10-21T15:53:55.613Z,62.10
2018-10-21T15:56:26.791Z,62.00
2018-10-21T15:58:57.984Z,62.70
2018-10-21T16:01:29.144Z,64.10
2018-10-21T16:04:00.606Z,65.00
2018-10-21T16:06:31.821Z,66.10
2018-10-21T16:09:03.016Z,67.30
2018-10-21T16:11:34.182Z,67.70
2018-10-21T16:14:05.510Z,67.90
2018-10-21T16:16:37.303Z,69.90
2018-10-21T16:19:09.110Z,71.20
2018-10-21T16:21:40.815Z,72.60
2018-10-21T16:24:12.401Z,74.40
2018-10-21T16:26:43.865Z,75.20
2018-10-21T16:29:15.994Z,76.80
2018-10-21T16:31:47.420Z,78.40
2018-10-21T16:34:18.912Z,79.50
2018-10-21T16:36:49.951Z,79.80
2018-10-21T16:39:21.928Z,79.10
2018-10-21T16:41:53.137Z,78.60
2018-10-21T16:44:24.429Z,77.90
2018-10-21T16:46:55.730Z,77.40
2018-10-21T16:49:26.933Z,76.50
2018-10-21T16:51:58.552Z,77.90
2018-10-21T16:54:29.888Z,77.90
2018-10-21T16:57:01.471Z,77.60
2018-10-21T16:59:32.666Z,77.50
2018-10-21T17:02:03.849Z,77.90
2018-10-21T17:04:35.986Z,78.60
2018-10-21T17:07:08.686Z,78.50
2018-10-21T17:09:40.674Z,78.90
2018-10-21T17:12:11.773Z,79.80
2018-10-21T17:14:43.045Z,79.60
2018-10-21T17:17:15.021Z,79.70
2018-10-21T17:19:46.948Z,79.60
2018-10-21T17:22:18.145Z,79.80
2018-10-21T17:24:49.779Z,79.80
2018-10-21T17:27:21.214Z,80.50
2018-10-21T17:29:52.629Z,80.80
2018-10-21T17:32:24.057Z,80.40
2018-10-21T17:34:55.335Z,80.50
2018-10-21T17:37:26.915Z,80.40
2018-10-21T17:39:58.181Z,80.80
2018-10-21T17:42:29.923Z,80.90
2018-10-21T17:45:01.210Z,81.50
2018-10-21T17:47:32.820Z,82.00
2018-10-21T17:50:04.444Z,82.50
2018-10-21T17:52:36.135Z,83.20
2018-10-21T17:55:07.380Z,83.50
2018-10-21T17:57:39.037Z,83.90
2018-10-21T18:00:12.941Z,83.90
2018-10-21T18:02:44.324Z,84.10
2018-10-21T18:05:16.481Z,83.80
2018-10-21T18:07:47.646Z,83.30
2018-10-21T18:10:18.916Z,83.30
2018-10-21T18:12:50.234Z,83.10
2018-10-21T18:15:21.651Z,82.30
2018-10-21T18:17:53.515Z,82.10
2018-10-21T18:20:25.316Z,82.50
2018-10-21T18:22:56.812Z,83.20
2018-10-21T18:25:28.011Z,82.90
2018-10-21T18:27:59.526Z,82.80
2018-10-21T18:30:31.034Z,83.20
2018-10-21T18:33:02.261Z,83.90
2018-10-21T18:35:33.449Z,84.70
2018-10-21T18:38:05.008Z,85.50
2018-10-21T18:40:36.242Z,85.80
2018-10-21T18:43:07.453Z,86.10
2018-10-21T18:45:38.901Z,85.50
2018-10-21T18:48:10.134Z,85.60
2018-10-21T18:50:41.658Z,85.60
2018-10-21T18:53:13.154Z,86.00
2018-10-21T18:55:45.188Z,86.30
2018-10-21T18:58:16.677Z,85.60
2018-10-21T19:00:47.830Z,85.40
2018-10-21T19:03:19.334Z,84.90
2018-10-21T19:05:50.500Z,85.20
2018-10-21T19:08:21.657Z,85.40
2018-10-21T19:10:53.528Z,85.70
2018-10-21T19:13:24.731Z,85.90
2018-10-21T19:15:56.441Z,86.80
2018-10-21T19:18:28.272Z,87.20
2018-10-21T19:20:59.472Z,86.90
2018-10-21T19:23:30.885Z,87.00
2018-10-21T19:26:02.058Z,86.40
2018-10-21T19:28:33.439Z,86.40
2018-10-21T19:31:04.697Z,86.50
2018-10-21T19:33:36.233Z,86.10
2018-10-21T19:36:07.728Z,85.70
2018-10-21T19:38:38.875Z,85.80
2018-10-21T19:41:10.017Z,86.00
2018-10-21T19:43:41.181Z,87.00
2018-10-21T19:46:12.415Z,87.60
2018-10-21T19:48:43.513Z,88.00
2018-10-21T19:51:15.135Z,88.00
2018-10-21T19:53:46.261Z,88.40
2018-10-21T19:56:17.702Z,88.20
2018-10-21T19:58:48.901Z,87.70
2018-10-21T20:01:20.514Z,87.40
2018-10-21T20:03:52.656Z,87.00
2018-10-21T20:06:23.883Z,87.10
2018-10-21T20:08:55.645Z,87.70
2018-10-21T20:11:26.877Z,87.70
2018-10-21T20:13:58.053Z,88.00
2018-10-21T20:16:29.655Z,88.30
2018-10-21T20:19:00.835Z,90.00
2018-10-21T20:21:31.968Z,89.40
2018-10-21T20:24:03.431Z,89.10
2018-10-21T20:26:34.630Z,89.10
2018-10-21T20:29:05.777Z,90.10
2018-10-21T20:31:37.033Z,89.20
2018-10-21T20:34:08.694Z,88.90
2018-10-21T20:36:39.856Z,87.90
2018-10-21T20:39:12.056Z,89.20
2018-10-21T20:41:43.301Z,88.90
2018-10-21T20:44:14.496Z,88.60
2018-10-21T20:46:45.714Z,88.50
2018-10-21T20:49:17.753Z,88.90
2018-10-21T20:51:49.447Z,90.00
2018-10-21T20:54:21.307Z,90.20
2018-10-21T20:56:52.505Z,90.50
2018-10-21T20:59:24.727Z,90.40
2018-10-21T21:01:56.220Z,90.30
2018-10-21T21:04:27.763Z,90.30
2018-10-21T21:06:59.022Z,90.50
2018-10-21T21:09:30.244Z,90.40
2018-10-21T21:12:01.447Z,90.70
2018-10-21T21:14:33.021Z,90.50
2018-10-21T21:17:05.127Z,90.30
2018-10-21T21:19:36.309Z,90.10
2018-10-21T21:22:07.489Z,90.20
2018-10-21T21:24:38.624Z,90.10
2018-10-21T21:27:10.005Z,90.20
2018-10-21T21:29:42.635Z,90.30
2018-10-21T21:32:13.820Z,90.60
2018-10-21T21:34:46.289Z,90.50
2018-10-21T21:37:19.636Z,91.10
2018-10-21T21:39:51.079Z,91.60
2018-10-21T21:42:22.482Z,91.80
2018-10-21T21:44:53.627Z,92.10
2018-10-21T21:47:24.782Z,91.80
2018-10-21T21:49:55.916Z,91.60
2018-10-21T21:52:27.500Z,91.70
2018-10-21T21:54:58.655Z,91.90
2018-10-21T21:57:30.401Z,92.10
2018-10-21T22:00:01.610Z,92.40
2018-10-21T22:02:32.987Z,92.20
2018-10-21T22:05:04.181Z,92.10
2018-10-21T22:07:35.904Z,91.70
2018-10-21T22:10:07.380Z,91.50
2018-10-21T22:12:38.946Z,92.00
2018-10-21T22:15:10.105Z,91.50
2018-10-21T22:17:42.213Z,91.50
2018-10-21T22:20:14.408Z,92.00
2018-10-21T22:22:45.620Z,92.00
2018-10-21T22:25:16.879Z,92.00
2018-10-21T22:27:48.152Z,92.30
2018-10-21T22:30:19.330Z,92.40
2018-10-21T22:32:50.483Z,93.00
2018-10-21T22:35:21.670Z,92.80
2018-10-21T22:37:52.863Z,92.90
2018-10-21T22:40:24.349Z,93.40
2018-10-21T22:42:55.937Z,92.70
2018-10-21T22:45:27.076Z,92.70
2018-10-21T22:47:58.646Z,92.50
2018-10-21T22:50:29.768Z,92.70
2018-10-21T22:53:00.930Z,93.00
2018-10-21T22:55:32.337Z,92.80
2018-10-21T22:58:03.518Z,92.50
2018-10-21T23:00:35.084Z,93.10
2018-10-21T23:03:06.354Z,93.20
2018-10-21T23:05:38.073Z,92.90
2018-10-21T23:08:09.341Z,92.80
2018-10-21T23:10:40.497Z,93.00
2018-10-21T23:13:11.878Z,92.40
2018-10-21T23:15:43.013Z,91.80
2018-10-21T23:18:14.477Z,92.00
2018-10-21T23:20:45.827Z,92.20
2018-10-21T23:23:17.669Z,92.90
2018-10-21T23:25:48.825Z,93.80
2018-10-21T23:28:20.465Z,93.80
2018-10-21T23:30:51.951Z,93.70
2018-10-21T23:33:23.755Z,93.60
2018-10-21T23:35:54.902Z,93.70
2018-10-21T23:38:26.469Z,93.60
2018-10-21T23:40:57.618Z,93.60
2018-10-21T23:43:28.989Z,93.60
2018-10-21T23:46:00.620Z,93.60
2018-10-21T23:48:31.901Z,93.60
2018-10-21T23:51:03.043Z,93.80
2018-10-21T23:53:35.171Z,94.10
2018-10-21T23:56:06.352Z,93.20
2018-10-21T23:58:38.217Z,93.50
